createdAt,value
2023-04-02T00:01:36.711Z,6.93
2023-04-02T00:04:26.404Z,7.47
2023-04-02T00:06:56.896Z,7.70
2023-04-02T00:09:30.735Z,7.23
2023-04-02T00:12:00.405Z,7.90
2023-04-02T00:14:30.864Z,7.37
2023-04-02T00:17:00.810Z,8.23
2023-04-02T00:19:36.205Z,7.00
2023-04-02T00:22:06.473Z,8.30
2023-04-02T00:24:34.982Z,7.30
2023-04-02T00:27:03.361Z,7.33
2023-04-02T00:29:31.576Z,7.43
2023-04-02T00:32:00.943Z,7.30
2023-04-02T00:34:37.489Z,8.40
2023-04-02T00:37:05.863Z,7.73
2023-04-02T00:39:41.497Z,8.33
2023-04-02T00:42:13.448Z,7.87
2023-04-02T00:44:44.261Z,7.83
2023-04-02T00:47:18.759Z,9.07
2023-04-02T00:49:50.060Z,8.20
2023-04-02T00:52:22.252Z,7.93
2023-04-02T00:54:53.791Z,8.20
2023-04-02T00:57:25.499Z,7.77
2023-04-02T00:59:57.451Z,8.63
2023-04-02T01:02:29.687Z,7.63
2023-04-02T01:05:00.468Z,8.33
2023-04-02T01:07:50.847Z,8.50
2023-04-02T01:10:34.425Z,7.73
2023-04-02T01:13:13.173Z,9.30
2023-04-02T01:15:43.654Z,8.10
2023-04-02T01:18:34.620Z,8.07
2023-04-02T01:21:47.144Z,7.57
2023-04-02T01:24:15.844Z,7.67
2023-04-02T01:26:51.175Z,8.10
2023-04-02T01:29:23.064Z,7.63
2023-04-02T01:31:52.191Z,7.67
2023-04-02T01:34:25.071Z,8.33
2023-04-02T01:37:04.516Z,7.80
2023-04-02T01:39:43.173Z,7.50
2023-04-02T01:42:17.616Z,8.37
2023-04-02T01:44:49.665Z,7.93
2023-04-02T01:47:20.357Z,6.90
2023-04-02T01:49:48.758Z,7.80
2023-04-02T01:52:21.041Z,7.47
2023-04-02T01:54:49.172Z,7.20
2023-04-02T01:57:17.591Z,6.93
2023-04-02T01:59:47.223Z,6.33
2023-04-02T02:02:15.934Z,6.77
2023-04-02T02:04:44.989Z,6.20
2023-04-02T02:07:18.587Z,6.60
2023-04-02T02:09:47.716Z,6.20
2023-04-02T02:12:16.793Z,6.87
2023-04-02T02:14:50.089Z,5.97
2023-04-02T02:17:27.956Z,6.27
2023-04-02T02:19:58.447Z,6.67
2023-04-02T02:22:31.021Z,6.50
2023-04-02T02:25:01.176Z,7.13
2023-04-02T02:27:47.551Z,6.73
2023-04-02T02:30:21.016Z,5.77
2023-04-02T02:32:54.901Z,6.20
2023-04-02T02:35:26.633Z,6.37
2023-04-02T02:38:00.864Z,7.13
2023-04-02T02:40:36.240Z,6.73
2023-04-02T02:43:07.252Z,7.07
2023-04-02T02:45:39.201Z,6.70
2023-04-02T02:48:13.165Z,6.07
2023-04-02T02:50:42.386Z,7.00
2023-04-02T02:53:18.826Z,6.37
2023-04-02T02:55:48.395Z,5.93
2023-04-02T02:58:19.337Z,6.37
2023-04-02T03:00:50.160Z,5.97
2023-04-02T03:03:21.933Z,6.27
2023-04-02T03:05:53.367Z,5.87
2023-04-02T03:08:26.512Z,6.00
2023-04-02T03:11:01.527Z,6.60
2023-04-02T03:13:35.570Z,6.30
2023-04-02T03:16:10.428Z,6.43
2023-04-02T03:18:46.479Z,6.07
2023-04-02T03:21:21.830Z,6.20
2023-04-02T03:23:55.068Z,6.90
2023-04-02T03:26:28.001Z,7.27
2023-04-02T03:29:00.783Z,7.00
2023-04-02T03:31:35.491Z,6.43
2023-04-02T03:34:09.601Z,6.73
2023-04-02T03:36:46.579Z,6.00
2023-04-02T03:39:21.310Z,6.17
2023-04-02T03:41:53.964Z,6.40
2023-04-02T03:44:28.381Z,6.10
2023-04-02T03:47:01.911Z,6.47
2023-04-02T03:49:36.130Z,6.07
2023-04-02T03:52:07.413Z,6.03
2023-04-02T03:54:35.633Z,6.57
2023-04-02T03:57:03.908Z,6.87
2023-04-02T03:59:40.890Z,7.00
2023-04-02T04:02:19.914Z,6.13
2023-04-02T04:04:49.430Z,6.10
2023-04-02T04:07:28.661Z,7.03
2023-04-02T04:09:57.200Z,6.60
2023-04-02T04:12:31.025Z,6.70
2023-04-02T04:15:03.643Z,6.20
2023-04-02T04:17:38.488Z,6.50
2023-04-02T04:20:21.840Z,6.60
2023-04-02T04:22:55.632Z,5.40
2023-04-02T04:25:29.611Z,6.30
2023-04-02T04:28:07.661Z,6.37
2023-04-02T04:30:45.128Z,6.07
2023-04-02T04:33:22.435Z,5.93
2023-04-02T04:35:54.553Z,5.73
2023-04-02T04:38:32.797Z,6.07
2023-04-02T04:41:05.674Z,5.13
2023-04-02T04:43:45.243Z,5.40
2023-04-02T04:46:19.150Z,4.63
2023-04-02T04:48:55.358Z,4.57
2023-04-02T04:51:26.398Z,5.10
2023-04-02T04:53:56.139Z,4.70
2023-04-02T04:56:29.538Z,4.47
2023-04-02T04:59:01.874Z,4.80
2023-04-02T05:01:38.081Z,4.40
2023-04-02T05:04:14.670Z,4.33
2023-04-02T05:06:45.776Z,3.97
2023-04-02T05:09:20.939Z,4.50
2023-04-02T05:11:53.794Z,4.40
2023-04-02T05:14:30.894Z,4.13
2023-04-02T05:17:04.713Z,3.87
2023-04-02T05:19:40.010Z,3.53
2023-04-02T05:22:21.094Z,3.77
2023-04-02T05:24:56.906Z,3.20
2023-04-02T05:27:33.664Z,3.27
2023-04-02T05:30:10.273Z,3.03
2023-04-02T05:32:43.202Z,3.33
2023-04-02T05:35:16.994Z,2.60
2023-04-02T05:37:46.118Z,3.30
2023-04-02T05:40:20.532Z,3.80
2023-04-02T05:42:52.957Z,2.93
2023-04-02T05:45:28.032Z,2.50
2023-04-02T05:48:00.080Z,2.33
2023-04-02T05:50:31.640Z,2.57
2023-04-02T05:53:05.504Z,3.03
2023-04-02T05:55:43.180Z,2.60
2023-04-02T05:58:35.265Z,2.60
2023-04-02T06:01:22.857Z,2.30
2023-04-02T06:04:00.389Z,2.27
2023-04-02T06:06:46.321Z,2.30
2023-04-02T06:09:19.218Z,3.20
2023-04-02T06:11:49.517Z,2.17
2023-04-02T06:14:18.532Z,2.47
2023-04-02T06:16:47.451Z,2.10
2023-04-02T06:19:21.486Z,2.47
2023-04-02T06:21:53.689Z,2.00
2023-04-02T06:24:26.645Z,2.27
2023-04-02T06:26:58.911Z,1.80
2023-04-02T06:29:34.012Z,2.20
2023-04-02T06:32:02.977Z,2.73
2023-04-02T06:34:32.878Z,2.30
2023-04-02T06:37:05.576Z,2.00
2023-04-02T06:39:33.452Z,3.27
2023-04-02T06:42:04.269Z,2.33
2023-04-02T06:44:34.990Z,2.60
2023-04-02T06:47:08.245Z,2.23
2023-04-02T06:49:43.142Z,3.03
2023-04-02T06:52:19.288Z,2.57
2023-04-02T06:54:48.049Z,2.30
2023-04-02T06:57:16.207Z,2.70
2023-04-02T06:59:44.591Z,2.50
2023-04-02T07:02:28.577Z,2.47
2023-04-02T07:05:03.033Z,2.67
2023-04-02T07:07:32.766Z,2.37
2023-04-02T07:10:00.741Z,3.40
2023-04-02T07:12:28.702Z,2.93
2023-04-02T07:14:56.778Z,3.23
2023-04-02T07:17:24.623Z,2.90
2023-04-02T07:19:52.562Z,2.83
2023-04-02T07:22:21.228Z,3.47
2023-04-02T07:24:50.564Z,3.80
2023-04-02T07:27:18.380Z,3.10
2023-04-02T07:29:46.251Z,3.00
2023-04-02T07:32:14.827Z,3.20
2023-04-02T07:34:43.197Z,3.07
2023-04-02T07:37:15.541Z,3.10
2023-04-02T07:39:43.396Z,2.53
2023-04-02T07:42:12.628Z,2.53
2023-04-02T07:44:40.535Z,2.90
2023-04-02T07:47:09.090Z,2.80
2023-04-02T07:49:37.211Z,2.90
2023-04-02T07:52:06.804Z,3.03
2023-04-02T07:54:35.700Z,2.47
2023-04-02T07:57:04.219Z,3.07
2023-04-02T07:59:33.807Z,2.90
2023-04-02T08:02:02.587Z,3.13
2023-04-02T08:04:31.126Z,2.83
2023-04-02T08:06:58.996Z,3.43
2023-04-02T08:09:27.023Z,3.07
2023-04-02T08:11:54.994Z,2.90
2023-04-02T08:14:22.911Z,3.37
2023-04-02T08:16:53.901Z,2.87
2023-04-02T08:19:21.984Z,2.97
2023-04-02T08:21:51.930Z,2.90
2023-04-02T08:24:20.367Z,2.80
2023-04-02T08:26:49.617Z,3.23
2023-04-02T08:29:17.743Z,3.00
2023-04-02T08:31:45.546Z,3.10
2023-04-02T08:34:15.324Z,3.20
2023-04-02T08:36:45.455Z,3.50
2023-04-02T08:39:14.565Z,3.10
2023-04-02T08:41:48.079Z,3.23
2023-04-02T08:44:37.955Z,2.80
2023-04-02T08:47:07.396Z,3.17
2023-04-02T08:49:41.377Z,2.80
2023-04-02T08:52:22.252Z,3.33
2023-04-02T08:54:50.648Z,2.53
2023-04-02T08:57:28.860Z,2.50
2023-04-02T09:00:01.463Z,2.47
2023-04-02T09:02:37.945Z,2.47
2023-04-02T09:05:16.190Z,2.77
2023-04-02T09:07:44.680Z,2.50
2023-04-02T09:10:16.395Z,2.33
2023-04-02T09:12:46.998Z,2.60
2023-04-02T09:15:23.494Z,2.10
2023-04-02T09:17:59.636Z,2.10
2023-04-02T09:20:29.816Z,2.40
2023-04-02T09:22:59.038Z,2.07
2023-04-02T09:25:29.949Z,2.60
2023-04-02T09:28:01.444Z,2.30
2023-04-02T09:30:44.648Z,1.80
2023-04-02T09:33:12.942Z,1.93
2023-04-02T09:35:57.783Z,1.97
2023-04-02T09:38:28.984Z,1.80
2023-04-02T09:41:01.306Z,2.43
2023-04-02T09:43:31.014Z,1.97
2023-04-02T09:46:01.809Z,1.40
2023-04-02T09:48:31.945Z,2.00
2023-04-02T09:51:16.319Z,1.40
2023-04-02T09:53:47.132Z,1.50
2023-04-02T09:56:18.653Z,1.30
2023-04-02T09:59:02.164Z,1.77
2023-04-02T10:01:33.136Z,1.40
2023-04-02T10:04:03.985Z,1.33
2023-04-02T10:06:35.170Z,1.70
2023-04-02T10:09:22.388Z,1.70
2023-04-02T10:11:52.068Z,1.90
2023-04-02T10:14:22.508Z,1.20
2023-04-02T10:16:53.455Z,1.33
2023-04-02T10:19:29.639Z,1.53
2023-04-02T10:22:01.906Z,1.70
2023-04-02T10:24:30.545Z,1.57
2023-04-02T10:27:09.471Z,1.53
2023-04-02T10:30:12.672Z,1.57
2023-04-02T10:32:45.417Z,1.57
2023-04-02T10:35:21.017Z,2.03
2023-04-02T10:38:18.862Z,2.00
2023-04-02T10:40:50.193Z,1.70
2023-04-02T10:43:49.996Z,1.87
2023-04-02T10:46:25.561Z,1.80
2023-04-02T10:49:04.032Z,1.57
2023-04-02T10:51:40.189Z,1.57
2023-04-02T10:54:27.798Z,1.60
2023-04-02T10:57:09.961Z,1.43
2023-04-02T10:59:43.958Z,2.40
2023-04-02T11:02:33.948Z,1.90
2023-04-02T11:05:11.340Z,1.60
2023-04-02T11:07:53.184Z,1.60
2023-04-02T11:10:23.633Z,1.77
2023-04-02T11:12:57.679Z,1.30
2023-04-02T11:15:26.349Z,1.70
2023-04-02T11:17:54.716Z,2.10
2023-04-02T11:21:05.936Z,2.10
2023-04-02T11:23:40.743Z,1.60
2023-04-02T11:26:42.402Z,1.80
2023-04-02T11:29:26.484Z,1.73
2023-04-02T11:32:30.039Z,1.90
2023-04-02T11:35:30.958Z,1.53
2023-04-02T11:38:00.439Z,1.90
2023-04-02T11:40:47.833Z,1.33
2023-04-02T11:44:00.618Z,1.73
2023-04-02T11:46:48.998Z,1.67
2023-04-02T11:49:57.143Z,1.50
2023-04-02T11:52:29.013Z,1.30
2023-04-02T11:55:22.235Z,1.50
2023-04-02T11:58:08.310Z,1.40
2023-04-02T12:01:11.726Z,1.60
2023-04-02T12:04:13.978Z,1.50
2023-04-02T12:06:59.860Z,1.43
2023-04-02T12:09:28.947Z,1.40
2023-04-02T12:11:59.439Z,1.70
2023-04-02T12:14:42.901Z,2.10
2023-04-02T12:17:22.539Z,1.60
2023-04-02T12:19:53.109Z,1.70
2023-04-02T12:22:23.842Z,1.53
2023-04-02T12:24:53.673Z,1.87
2023-04-02T12:27:27.571Z,1.80
2023-04-02T12:30:13.900Z,1.50
2023-04-02T12:32:43.687Z,1.60
2023-04-02T12:35:29.744Z,1.63
2023-04-02T12:37:58.183Z,1.70
2023-04-02T12:40:27.199Z,1.60
2023-04-02T12:42:55.487Z,1.90
2023-04-02T12:45:26.610Z,1.50
2023-04-02T12:47:58.818Z,1.60
2023-04-02T12:50:26.985Z,1.63
2023-04-02T12:52:58.759Z,1.60
2023-04-02T12:55:28.378Z,1.67
2023-04-02T12:57:57.740Z,1.30
2023-04-02T13:00:34.879Z,1.20
2023-04-02T13:03:18.185Z,1.53
2023-04-02T13:05:50.281Z,1.57
2023-04-02T13:08:20.055Z,1.50
2023-04-02T13:10:54.337Z,1.40
2023-04-02T13:13:30.813Z,1.53
2023-04-02T13:16:07.484Z,1.70
2023-04-02T13:18:38.824Z,2.00
2023-04-02T13:21:07.659Z,1.60
2023-04-02T13:23:37.943Z,1.87
2023-04-02T13:26:16.840Z,1.83
2023-04-02T13:28:45.422Z,1.73
2023-04-02T13:31:17.724Z,1.37
2023-04-02T13:33:47.092Z,1.30
2023-04-02T13:36:15.656Z,1.80
2023-04-02T13:38:44.085Z,1.40
2023-04-02T13:41:21.392Z,1.70
2023-04-02T13:43:49.900Z,1.67
2023-04-02T13:46:22.201Z,1.60
2023-04-02T13:48:52.686Z,1.60
2023-04-02T13:51:23.673Z,1.50
2023-04-02T13:53:54.518Z,1.93
2023-04-02T13:56:23.256Z,1.30
2023-04-02T13:58:51.296Z,1.50
2023-04-02T14:01:20.561Z,1.40
2023-04-02T14:03:48.748Z,1.53
2023-04-02T14:06:25.663Z,1.48
2023-04-02T14:09:04.438Z,1.42
2023-04-02T14:11:43.045Z,1.40
2023-04-02T14:14:30.855Z,1.50
2023-04-02T14:17:11.640Z,1.85
2023-04-02T14:19:50.988Z,1.27
2023-04-02T14:22:30.794Z,1.30
2023-04-02T14:25:07.905Z,1.40
2023-04-02T14:27:45.843Z,1.50
2023-04-02T14:30:21.317Z,1.40
2023-04-02T14:32:56.727Z,1.25
2023-04-02T14:35:32.093Z,1.40
2023-04-02T14:38:10.148Z,1.67
2023-04-02T14:40:46.242Z,1.45
2023-04-02T14:43:20.544Z,1.63
2023-04-02T14:45:58.081Z,1.70
2023-04-02T14:48:44.342Z,1.27
2023-04-02T14:51:18.361Z,1.70
2023-04-02T14:53:58.214Z,1.60
2023-04-02T14:56:26.905Z,1.50
2023-04-02T14:59:05.457Z,2.10
2023-04-02T15:01:38.599Z,2.00
2023-04-02T15:04:13.288Z,1.20
2023-04-02T15:06:45.701Z,1.77
2023-04-02T15:09:20.658Z,1.48
2023-04-02T15:11:52.463Z,1.60
2023-04-02T15:14:23.399Z,1.40
2023-04-02T15:16:51.449Z,2.00
2023-04-02T15:19:20.359Z,2.13
2023-04-02T15:22:09.685Z,1.60
2023-04-02T15:24:51.191Z,1.30
2023-04-02T15:27:51.222Z,1.20
2023-04-02T15:30:23.506Z,1.40
2023-04-02T15:32:53.716Z,1.00
2023-04-02T15:35:38.406Z,1.27
2023-04-02T15:38:13.131Z,1.35
2023-04-02T15:40:54.727Z,1.42
2023-04-02T15:43:28.578Z,1.50
2023-04-02T15:46:10.341Z,1.58
2023-04-02T15:48:53.101Z,1.58
2023-04-02T15:51:29.723Z,1.73
2023-04-02T15:54:10.255Z,1.52
2023-04-02T15:56:51.349Z,1.38
2023-04-02T15:59:49.416Z,1.80
2023-04-02T16:02:39.877Z,1.35
2023-04-02T16:05:16.042Z,1.55
2023-04-02T16:08:22.135Z,1.60
2023-04-02T16:10:49.927Z,1.40
2023-04-02T16:13:26.900Z,1.35
2023-04-02T16:16:00.375Z,1.58
2023-04-02T16:18:37.539Z,1.60
2023-04-02T16:21:06.499Z,1.75
2023-04-02T16:23:36.845Z,1.92
2023-04-02T16:26:26.046Z,1.88
2023-04-02T16:29:04.932Z,1.75
2023-04-02T16:31:42.125Z,1.70
2023-04-02T16:34:16.020Z,1.58
2023-04-02T16:36:50.584Z,1.58
2023-04-02T16:39:30.977Z,1.52
2023-04-02T16:42:08.452Z,1.30
2023-04-02T16:44:46.747Z,1.42
2023-04-02T16:47:31.198Z,1.40
2023-04-02T16:50:03.595Z,1.50
2023-04-02T16:52:47.878Z,1.70
2023-04-02T16:55:31.389Z,1.50
2023-04-02T16:58:15.090Z,1.48
2023-04-02T17:00:49.394Z,1.60
2023-04-02T17:03:36.081Z,1.52
2023-04-02T17:06:09.143Z,1.50
2023-04-02T17:08:42.892Z,1.57
2023-04-02T17:11:16.696Z,1.57
2023-04-02T17:13:47.871Z,1.90
2023-04-02T17:16:21.580Z,1.73
2023-04-02T17:18:52.246Z,1.93
2023-04-02T17:21:23.812Z,1.80
2023-04-02T17:23:56.785Z,1.40
2023-04-02T17:26:28.536Z,1.40
2023-04-02T17:28:59.025Z,1.40
2023-04-02T17:31:33.991Z,1.80
2023-04-02T17:34:10.550Z,1.20
2023-04-02T17:36:50.023Z,1.30
2023-04-02T17:39:25.398Z,1.27
2023-04-02T17:41:59.817Z,1.57
2023-04-02T17:44:45.241Z,1.20
2023-04-02T17:47:20.401Z,1.30
2023-04-02T17:49:55.321Z,1.30
2023-04-02T17:52:29.895Z,1.70
2023-04-02T17:55:07.334Z,1.50
2023-04-02T17:58:01.134Z,1.40
2023-04-02T18:00:42.220Z,1.50
2023-04-02T18:03:50.634Z,1.60
2023-04-02T18:06:22.450Z,1.40
2023-04-02T18:09:05.761Z,1.40
2023-04-02T18:11:44.830Z,1.63
2023-04-02T18:14:28.934Z,1.80
2023-04-02T18:17:02.882Z,1.67
2023-04-02T18:19:40.386Z,1.57
2023-04-02T18:22:16.757Z,1.97
2023-04-02T18:25:12.535Z,2.00
2023-04-02T18:27:56.955Z,2.20
2023-04-02T18:30:31.040Z,2.13
2023-04-02T18:33:25.389Z,2.37
2023-04-02T18:36:00.799Z,1.70
2023-04-02T18:38:38.031Z,2.00
2023-04-02T18:41:26.933Z,1.47
2023-04-02T18:44:07.624Z,1.60
2023-04-02T18:46:43.384Z,1.70
2023-04-02T18:49:24.750Z,1.50
2023-04-02T18:51:59.417Z,1.40
2023-04-02T18:54:33.089Z,1.73
2023-04-02T18:57:04.124Z,1.80
2023-04-02T18:59:40.013Z,2.13
2023-04-02T19:02:30.993Z,2.17
2023-04-02T19:05:03.802Z,3.10
2023-04-02T19:07:37.118Z,3.80
2023-04-02T19:10:15.035Z,3.27
2023-04-02T19:12:42.973Z,3.40
2023-04-02T19:15:17.435Z,4.20
2023-04-02T19:18:16.446Z,4.03
2023-04-02T19:20:52.485Z,3.17
2023-04-02T19:23:39.436Z,3.33
2023-04-02T19:26:09.649Z,2.53
2023-04-02T19:28:45.102Z,2.20
2023-04-02T19:31:27.542Z,2.80
2023-04-02T19:34:00.439Z,3.00
2023-04-02T19:36:45.787Z,3.20
2023-04-02T19:39:46.975Z,2.53
2023-04-02T19:42:23.147Z,2.40
2023-04-02T19:44:52.600Z,2.00
2023-04-02T19:47:21.585Z,1.90
2023-04-02T19:49:49.716Z,1.63
2023-04-02T19:52:18.084Z,1.83
2023-04-02T19:54:47.430Z,1.30
2023-04-02T19:57:17.207Z,1.70
2023-04-02T19:59:45.396Z,1.50
2023-04-02T20:02:13.305Z,1.50
2023-04-02T20:04:42.439Z,1.30
2023-04-02T20:07:10.781Z,1.83
2023-04-02T20:09:38.684Z,1.70
2023-04-02T20:12:08.078Z,1.20
2023-04-02T20:14:35.985Z,1.47
2023-04-02T20:17:03.893Z,2.20
2023-04-02T20:19:32.278Z,2.23
2023-04-02T20:22:00.174Z,2.33
2023-04-02T20:24:28.034Z,2.30
2023-04-02T20:26:56.123Z,1.90
2023-04-02T20:29:28.403Z,1.90
2023-04-02T20:31:56.408Z,1.63
2023-04-02T20:34:24.657Z,1.97
2023-04-02T20:36:53.630Z,2.27
2023-04-02T20:39:21.596Z,1.43
2023-04-02T20:41:49.591Z,1.67
2023-04-02T20:44:17.459Z,1.40
2023-04-02T20:46:46.834Z,1.87
2023-04-02T20:49:14.884Z,1.77
2023-04-02T20:51:43.242Z,1.40
2023-04-02T20:54:11.392Z,1.57
2023-04-02T20:56:39.655Z,1.63
2023-04-02T20:59:07.495Z,1.67
2023-04-02T21:01:35.397Z,1.60
2023-04-02T21:04:05.772Z,1.60
2023-04-02T21:06:35.726Z,1.40
2023-04-02T21:09:08.320Z,1.50
2023-04-02T21:11:37.435Z,1.30
2023-04-02T21:14:05.969Z,1.27
2023-04-02T21:16:33.962Z,1.63
2023-04-02T21:19:05.912Z,1.50
2023-04-02T21:21:35.510Z,1.63
2023-04-02T21:24:05.749Z,1.63
2023-04-02T21:26:35.563Z,1.30
2023-04-02T21:29:03.758Z,1.60
2023-04-02T21:31:35.180Z,1.60
2023-04-02T21:34:05.960Z,1.40
2023-04-02T21:36:35.860Z,1.60
2023-04-02T21:39:06.510Z,1.20
2023-04-02T21:41:36.004Z,1.37
2023-04-02T21:44:05.879Z,2.00
2023-04-02T21:46:37.203Z,1.20
2023-04-02T21:49:08.010Z,1.30
2023-04-02T21:51:38.454Z,1.40
2023-04-02T21:54:07.692Z,1.57
2023-04-02T21:56:37.323Z,1.40
2023-04-02T21:59:07.409Z,1.00
2023-04-02T22:01:36.828Z,1.13
2023-04-02T22:04:08.270Z,1.20
2023-04-02T22:06:40.121Z,1.03
2023-04-02T22:09:10.476Z,1.07
2023-04-02T22:11:41.462Z,1.00
2023-04-02T22:14:09.838Z,1.07
2023-04-02T22:16:38.291Z,1.00
2023-04-02T22:19:10.604Z,0.90
2023-04-02T22:21:39.710Z,1.07
2023-04-02T22:24:09.993Z,1.10
2023-04-02T22:26:38.742Z,1.00
2023-04-02T22:29:06.632Z,1.80
2023-04-02T22:31:35.202Z,1.30
2023-04-02T22:34:04.866Z,1.20
2023-04-02T22:36:35.046Z,1.10
2023-04-02T22:39:05.352Z,1.07
2023-04-02T22:41:33.626Z,1.77
2023-04-02T22:44:02.580Z,1.20
2023-04-02T22:46:31.693Z,0.90
2023-04-02T22:48:59.922Z,1.10
2023-04-02T22:51:28.694Z,1.00
2023-04-02T22:53:58.430Z,1.07
2023-04-02T22:56:31.648Z,1.23
2023-04-02T22:58:59.592Z,1.10
2023-04-02T23:01:30.533Z,1.17
2023-04-02T23:03:58.764Z,1.17
2023-04-02T23:06:27.198Z,1.40
2023-04-02T23:08:55.359Z,1.27
2023-04-02T23:11:27.144Z,1.40
2023-04-02T23:13:56.982Z,1.23
2023-04-02T23:16:27.062Z,1.40
2023-04-02T23:18:55.894Z,1.07
2023-04-02T23:21:24.354Z,1.10
2023-04-02T23:23:52.804Z,0.90
2023-04-02T23:26:22.897Z,1.10
2023-04-02T23:28:52.377Z,1.20
2023-04-02T23:31:22.280Z,1.07
2023-04-02T23:33:51.228Z,0.93
2023-04-02T23:36:22.413Z,1.00
2023-04-02T23:38:52.165Z,1.30
2023-04-02T23:41:19.998Z,1.10
2023-04-02T23:43:47.841Z,1.20
2023-04-02T23:46:17.070Z,1.13
2023-04-02T23:48:45.880Z,1.20
2023-04-02T23:51:14.540Z,1.20
2023-04-02T23:53:43.348Z,1.10
2023-04-02T23:56:11.590Z,1.10
2023-04-02T23:58:39.554Z,1.10
